• Join FlightAware (Why Join?)
  • Login
  • US Flag 
07:48PM EST


 

Airport Tracker/Info


-or-


 

Live Flight TrackerFlight Track Log ✈ CSH9523 ✈ 10-Aug-2014 ✈ ZSSS / SHA - ZSFZ / FOC

Flight Track Log - Related Links

Times and Time Zones

All times are in EDT time to prevent confusion due to time zone crossing. See the CSH9523 flight status page for this flight to view local times or setup timezone preferences in your user account.

Time Position Orientation Groundspeed Altitude Reporting Facility
EDT Latitude Longitude Course Direction KTS MPH feet Rate Location/Type
07:10AM 30.5306 121.1142 196° South  Level Estimated
07:11AM 30.4555 121.0894 196° South  Level Estimated
07:12AM 30.3804 121.0646 196° South  Level Estimated
07:13AM 30.3053 121.0399 196° South  Level Estimated
07:14AM 30.2302 121.0152 196° South  Level Estimated
07:15AM 30.1551 120.9905 196° South  Level Estimated
07:16AM 30.0800 120.9659 196° South  Level Estimated
07:17AM 30.0049 120.9414 196° South  Level Estimated
07:18AM 29.9298 120.9168 196° South  Level Estimated
07:19AM 29.8547 120.8923 196° South  Level Estimated
07:20AM 29.7795 120.8679 196° South  Level Estimated
07:21AM 29.7044 120.8434 196° South  Level Estimated
07:22AM 29.6292 120.8190 196° South  Level Estimated
07:23AM 29.5541 120.7947 196° South  Level Estimated
07:24AM 29.4790 120.7704 196° South  Level Estimated
07:25AM 29.4038 120.7461 196° South  Level Estimated
07:26AM 29.3286 120.7218 196° South  Level Estimated
07:27AM 29.2535 120.6976 196° South  Level Estimated
07:28AM 29.1783 120.6735 196° South  Level Estimated
07:29AM 29.1031 120.6493 196° South  Level Estimated
07:30AM 29.0280 120.6252 196° South  Level Estimated
07:31AM 28.9528 120.6012 196° South  Level Estimated
07:32AM 28.8776 120.5771 196° South  Level Estimated
07:33AM 28.8024 120.5531 196° South  Level Estimated
07:34AM 28.7272 120.5292 196° South  Level Estimated
07:35AM 28.6520 120.5052 196° South  Level Estimated
07:36AM 28.5768 120.4813 196° South  Level Estimated
07:37AM 28.5016 120.4575 196° South  Level Estimated
07:38AM 28.4264 120.4336 196° South  Level Estimated
07:39AM 28.3512 120.4099 196° South  Level Estimated
07:40AM 28.2760 120.3861 196° South  Level Estimated
07:41AM 28.2008 120.3624 196° South  Level Estimated
07:42AM 28.1255 120.3387 196° South  Level Estimated
07:43AM 28.0503 120.3150 196° South  Level Estimated
07:44AM 27.9751 120.2914 196° South  Level Estimated
07:45AM 27.8998 120.2678 195° South  Level Estimated
07:46AM 27.8246 120.2442 195° South  Level Estimated
07:47AM 27.7493 120.2207 195° South  Level Estimated
07:48AM 27.6741 120.1972 195° South  Level Estimated
07:49AM 27.5988 120.1738 195° South  Level Estimated
07:50AM 27.5236 120.1503 195° South  Level Estimated
07:51AM 27.4483 120.1269 195° South  Level Estimated
07:52AM 27.3731 120.1036 195° South  Level Estimated
07:53AM 27.2978 120.0802 195° South  Level Estimated
07:54AM 27.2225 120.0569 195° South  Level Estimated
07:55AM 27.1472 120.0336 195° South  Level Estimated
07:56AM 27.0720 120.0104 195° South  Level Estimated
07:57AM 26.9967 119.9872 195° South  Level Estimated
07:58AM 26.9214 119.9640 195° South  Level Estimated
07:59AM 26.8461 119.9409 195° South  Level Estimated
08:00AM 26.7708 119.9177 195° South  Level Estimated
08:01AM 26.6955 119.8947 195° South  Level Estimated
08:02AM 26.6202 119.8716 195° South  Level Estimated
08:03AM 26.5449 119.8486 195° South  Level Estimated
08:04AM 26.4696 119.8256 195° South  Level Estimated
08:05AM 26.3943 119.8026 195° South  Level Estimated
08:06AM 26.3189 119.7797 195° South  Level Estimated
08:07AM 26.2436 119.7568 195° South  Level Estimated
08:08AM 26.1683 119.7339 195° South  Level Estimated
08:09AM 26.0930 119.7111 195° South  Level Estimated
08:10AM 26.0176 119.6882 195° South  Level Estimated
08:11AM 25.9423 119.6655 195° South  Level Estimated
08:12AM 25.9351 119.6633 195° South  Level Estimated
08:13AM 25.9351 119.6633 North  Level Estimated